createdAt,value
2019-04-11T00:00:17.467Z,56.80
2019-04-11T00:02:47.706Z,56.80
2019-04-11T00:05:17.554Z,56.90
2019-04-11T00:07:47.465Z,56.80
2019-04-11T00:10:17.447Z,56.80
2019-04-11T00:12:48.521Z,56.90
2019-04-11T00:15:18.653Z,56.80
2019-04-11T00:17:48.652Z,56.80
2019-04-11T00:20:18.487Z,56.80
2019-04-11T00:22:48.357Z,56.80
2019-04-11T00:25:18.345Z,56.80
2019-04-11T00:27:48.950Z,56.80
2019-04-11T00:30:19.813Z,56.90
2019-04-11T00:32:49.882Z,56.90
2019-04-11T00:35:19.791Z,56.90
2019-04-11T00:37:49.578Z,56.90
2019-04-11T00:40:19.964Z,56.90
2019-04-11T00:42:51.008Z,56.90
2019-04-11T00:45:21.291Z,56.90
2019-04-11T00:47:51.266Z,56.90
2019-04-11T00:50:21.207Z,56.90
2019-04-11T00:52:51.665Z,56.90
2019-04-11T00:55:21.782Z,56.80
2019-04-11T00:57:52.938Z,56.80
2019-04-11T01:00:22.912Z,56.90
2019-04-11T01:02:53.698Z,56.90
2019-04-11T01:05:23.625Z,56.90
2019-04-11T01:07:56.223Z,56.80
2019-04-11T01:10:26.558Z,56.80
2019-04-11T01:12:56.704Z,56.80
2019-04-11T01:15:27.180Z,56.70
2019-04-11T01:20:27.799Z,56.70
2019-04-11T01:22:58.461Z,56.70
2019-04-11T01:25:28.506Z,56.70
2019-04-11T01:27:58.551Z,56.70
2019-04-11T01:30:30.653Z,56.70
2019-04-11T01:33:02.505Z,56.70
2019-04-11T01:38:03.988Z,56.70
2019-04-11T01:40:33.959Z,56.70
2019-04-11T01:43:04.208Z,56.70
2019-04-11T01:45:34.062Z,56.70
2019-04-11T01:48:11.405Z,56.60
2019-04-11T01:52:58.425Z,56.60
2019-04-11T01:55:28.783Z,56.60
2019-04-11T01:57:58.614Z,56.60
2019-04-11T02:00:30.261Z,56.50
2019-04-11T02:03:01.724Z,56.50
2019-04-11T02:05:33.101Z,56.50
2019-04-11T02:08:02.969Z,56.50
2019-04-11T02:10:34.898Z,56.50
2019-04-11T02:13:05.822Z,56.50
2019-04-11T02:15:36.635Z,56.50
2019-04-11T02:18:07.556Z,56.50
2019-04-11T02:20:38.783Z,56.50
2019-04-11T02:23:10.888Z,56.40
2019-04-11T02:25:54.515Z,56.40
2019-04-11T02:28:24.458Z,56.40
2019-04-11T02:30:56.614Z,56.40
2019-04-11T02:33:27.058Z,56.30
2019-04-11T02:35:57.279Z,56.30
2019-04-11T02:38:30.333Z,56.30
2019-04-11T02:41:01.171Z,56.40
2019-04-11T02:43:32.019Z,56.30
2019-04-11T02:46:11.834Z,56.30
2019-04-11T02:48:35.577Z,56.30
2019-04-11T02:51:06.710Z,56.30
2019-04-11T02:53:36.831Z,56.30
2019-04-11T02:56:08.641Z,56.30
2019-04-11T02:58:40.096Z,56.30
2019-04-11T03:01:12.079Z,56.30
2019-04-11T03:06:11.722Z,56.20
2019-04-11T03:08:43.623Z,56.20
2019-04-11T03:11:14.352Z,56.20
2019-04-11T03:13:44.886Z,56.20
2019-04-11T03:16:29.624Z,56.20
2019-04-11T03:19:05.645Z,56.20
2019-04-11T03:21:21.890Z,56.20
2019-04-11T03:23:51.437Z,56.20
2019-04-11T03:26:21.671Z,56.20
2019-04-11T03:28:55.632Z,56.10
2019-04-11T03:34:39.808Z,56.10
2019-04-11T03:39:14.815Z,55.90
2019-04-11T03:41:48.766Z,55.50
2019-04-11T03:44:13.825Z,55.20
2019-04-11T03:46:49.545Z,54.90
2019-04-11T03:49:19.383Z,54.80
2019-04-11T03:51:37.074Z,54.70
2019-04-11T03:54:09.600Z,54.50
2019-04-11T03:56:39.072Z,54.40
2019-04-11T03:59:12.411Z,54.30
2019-04-11T04:01:42.526Z,54.20
2019-04-11T04:08:15.780Z,53.90
2019-04-11T04:11:04.096Z,53.80
2019-04-11T04:16:19.843Z,53.70
2019-04-11T04:18:45.809Z,53.70
2019-04-11T04:21:24.694Z,53.60
2019-04-11T04:23:55.970Z,53.50
2019-04-11T04:26:26.950Z,53.50
2019-04-11T04:31:28.627Z,53.40
2019-04-11T04:33:59.624Z,53.40
2019-04-11T04:36:30.903Z,53.30
2019-04-11T04:39:01.930Z,53.20
2019-04-11T04:41:42.898Z,53.20
2019-04-11T04:44:06.484Z,53.30
2019-04-11T04:46:52.648Z,53.30
2019-04-11T04:49:11.057Z,53.20
2019-04-11T04:51:41.556Z,53.20
2019-04-11T04:54:12.155Z,53.10
2019-04-11T04:56:43.704Z,53.10
2019-04-11T04:59:14.655Z,53.00
2019-04-11T05:01:46.302Z,53.00
2019-04-11T05:04:16.404Z,52.90
2019-04-11T05:06:48.307Z,52.90
2019-04-11T05:09:17.929Z,52.80
2019-04-11T05:14:20.852Z,52.70
2019-04-11T05:16:52.152Z,52.70
2019-04-11T05:19:23.767Z,52.60
2019-04-11T05:24:35.292Z,52.50
2019-04-11T05:27:06.241Z,52.50
2019-04-11T05:29:37.636Z,52.50
2019-04-11T05:32:07.575Z,52.50
2019-04-11T05:34:39.331Z,52.50
2019-04-11T05:37:09.197Z,52.50
2019-04-11T05:39:39.842Z,52.50
2019-04-11T05:42:11.264Z,52.50
2019-04-11T05:44:41.756Z,52.40
2019-04-11T05:47:14.567Z,52.40
2019-04-11T05:49:56.848Z,52.50
2019-04-11T05:52:30.518Z,52.40
2019-04-11T05:55:00.728Z,52.40
2019-04-11T05:57:35.525Z,52.30
2019-04-11T06:00:03.458Z,52.30
2019-04-11T06:02:39.440Z,52.30
2019-04-11T06:05:17.249Z,52.30
2019-04-11T06:07:54.797Z,52.30
2019-04-11T06:10:28.269Z,52.30
2019-04-11T06:13:16.460Z,52.30
2019-04-11T06:15:54.066Z,52.30
2019-04-11T06:18:44.979Z,52.20
2019-04-11T06:21:24.399Z,52.40
2019-04-11T06:24:08.331Z,52.40
2019-04-11T06:26:40.808Z,52.40
2019-04-11T06:29:24.381Z,52.30
2019-04-11T06:32:09.706Z,52.30
2019-04-11T06:34:41.705Z,52.40
2019-04-11T06:38:06.672Z,52.80
2019-04-11T06:40:56.463Z,53.00
2019-04-11T06:43:34.181Z,53.10
2019-04-11T06:46:09.086Z,53.30
2019-04-11T06:48:40.664Z,53.30
2019-04-11T06:53:44.111Z,53.40
2019-04-11T06:56:16.725Z,53.40
2019-04-11T06:58:50.731Z,53.40
2019-04-11T07:01:22.317Z,53.40
2019-04-11T07:03:57.506Z,53.40
2019-04-11T07:06:29.448Z,53.50
2019-04-11T07:11:55.074Z,53.80
2019-04-11T07:14:43.382Z,53.90
2019-04-11T07:17:31.797Z,53.90
2019-04-11T07:20:20.693Z,53.90
2019-04-11T07:23:09.112Z,53.90
2019-04-11T07:25:47.378Z,54.10
2019-04-11T07:34:14.669Z,54.10
2019-04-11T07:40:03.331Z,54.30
2019-04-11T07:42:41.172Z,54.20
2019-04-11T07:45:27.652Z,54.10
2019-04-11T07:48:02.810Z,54.10
2019-04-11T07:50:33.330Z,54.10
2019-04-11T07:53:04.978Z,54.00
2019-04-11T07:55:36.529Z,54.10
2019-04-11T07:58:23.980Z,54.00
2019-04-11T08:00:55.935Z,53.90
2019-04-11T08:03:27.742Z,53.80
2019-04-11T08:06:08.477Z,53.80
2019-04-11T08:08:56.623Z,53.80
2019-04-11T08:11:28.237Z,53.90
2019-04-11T08:14:06.387Z,53.80
2019-04-11T08:16:38.945Z,53.80
2019-04-11T08:19:27.378Z,53.60
2019-04-11T08:22:02.943Z,53.60
2019-04-11T08:27:50.959Z,53.50
2019-04-11T08:30:10.911Z,53.40
2019-04-11T08:32:49.824Z,53.40
2019-04-11T08:35:28.358Z,53.40
2019-04-11T08:38:05.936Z,53.30
2019-04-11T08:40:53.350Z,53.20
2019-04-11T08:43:33.730Z,53.20
2019-04-11T08:46:06.613Z,53.10
2019-04-11T08:48:41.160Z,53.00
2019-04-11T08:51:14.843Z,52.70
2019-04-11T08:53:46.400Z,52.00
2019-04-11T08:56:18.991Z,51.10
2019-04-11T08:59:11.641Z,51.00
2019-04-11T09:01:42.400Z,50.60
2019-04-11T09:04:26.076Z,51.00
2019-04-11T09:06:57.347Z,51.10
2019-04-11T09:09:40.930Z,51.70
2019-04-11T09:12:12.593Z,51.40
2019-04-11T09:14:46.895Z,51.60
2019-04-11T09:17:19.527Z,51.60
2019-04-11T09:19:55.038Z,51.70
2019-04-11T09:22:33.210Z,51.80
2019-04-11T09:25:05.250Z,51.80
2019-04-11T09:27:38.413Z,51.80
2019-04-11T09:30:17.476Z,51.90
2019-04-11T09:32:49.211Z,51.90
2019-04-11T09:35:37.393Z,51.90
2019-04-11T09:38:18.254Z,51.80
2019-04-11T09:40:50.098Z,51.90
2019-04-11T09:43:24.509Z,51.90
2019-04-11T09:46:12.331Z,51.90
2019-04-11T09:48:46.477Z,52.00
2019-04-11T09:51:21.758Z,52.00
2019-04-11T09:54:01.454Z,52.10
2019-04-11T09:59:20.801Z,52.20
2019-04-11T10:01:58.334Z,52.20
2019-04-11T10:04:29.843Z,52.10
2019-04-11T10:07:17.661Z,52.00
2019-04-11T10:09:55.464Z,52.10
2019-04-11T10:12:40.586Z,52.20
2019-04-11T10:15:11.431Z,52.10
2019-04-11T10:18:00.714Z,52.10
2019-04-11T10:20:31.384Z,53.20
2019-04-11T10:23:03.315Z,54.20
2019-04-11T10:25:35.331Z,53.70
2019-04-11T10:28:19.594Z,54.30
2019-04-11T10:30:55.715Z,54.20
2019-04-11T10:33:39.408Z,54.30
2019-04-11T10:37:11.670Z,53.80
2019-04-11T10:39:53.526Z,53.60
2019-04-11T10:42:26.588Z,53.70
2019-04-11T10:45:16.254Z,53.50
2019-04-11T10:47:47.300Z,53.50
2019-04-11T10:50:19.683Z,53.60
2019-04-11T10:52:51.523Z,53.40
2019-04-11T10:58:06.758Z,53.80
2019-04-11T11:00:38.327Z,54.00
2019-04-11T11:05:47.157Z,54.00
2019-04-11T11:12:30.285Z,54.10
2019-04-11T11:15:11.510Z,54.00
2019-04-11T11:18:32.051Z,54.20
2019-04-11T11:20:38.675Z,54.40
2019-04-11T11:23:22.033Z,54.30
2019-04-11T11:26:02.818Z,54.80
2019-04-11T11:28:51.906Z,55.50
2019-04-11T11:31:26.137Z,56.30
2019-04-11T11:33:58.841Z,55.90
2019-04-11T11:36:37.987Z,56.20
2019-04-11T11:39:19.336Z,55.80
2019-04-11T11:42:08.589Z,56.00
2019-04-11T11:44:55.263Z,55.80
2019-04-11T11:47:43.200Z,56.30
2019-04-11T11:50:21.288Z,55.90
2019-04-11T11:53:07.368Z,56.00
2019-04-11T11:55:39.503Z,55.50
2019-04-11T11:58:16.794Z,55.00
2019-04-11T12:00:49.705Z,54.60
2019-04-11T12:03:37.123Z,54.80
2019-04-11T12:06:09.760Z,53.80
2019-04-11T12:10:57.543Z,53.60
2019-04-11T12:13:41.216Z,49.80
2019-04-11T12:16:21.324Z,49.70
2019-04-11T12:18:54.368Z,49.70
2019-04-11T12:21:28.488Z,50.40
2019-04-11T12:24:19.615Z,50.80
2019-04-11T12:27:04.485Z,50.70
2019-04-11T12:29:46.376Z,50.40
2019-04-11T12:32:18.474Z,50.70
2019-04-11T12:35:06.579Z,51.10
2019-04-11T12:37:45.354Z,51.30
2019-04-11T12:43:06.405Z,52.70
2019-04-11T12:45:54.053Z,53.00
2019-04-11T12:48:25.909Z,53.20
2019-04-11T12:51:12.524Z,52.80
2019-04-11T12:53:42.278Z,53.10
2019-04-11T12:58:51.897Z,52.60
2019-04-11T13:01:26.058Z,52.90
2019-04-11T13:04:00.487Z,52.80
2019-04-11T13:09:17.657Z,53.30
2019-04-11T13:11:49.567Z,53.70
2019-04-11T13:14:27.124Z,54.00
2019-04-11T13:21:38.210Z,53.60
2019-04-11T13:24:12.842Z,53.40
2019-04-11T13:27:00.658Z,53.00
2019-04-11T13:29:38.581Z,52.20
2019-04-11T13:32:28.013Z,52.40
2019-04-11T13:35:02.543Z,52.50
2019-04-11T13:40:33.542Z,52.10
2019-04-11T13:43:14.173Z,52.00
2019-04-11T13:46:13.148Z,51.80
2019-04-11T13:48:44.981Z,51.80
2019-04-11T13:51:31.627Z,51.60
2019-04-11T13:54:20.902Z,52.90
2019-04-11T13:57:09.152Z,53.40
2019-04-11T13:59:57.183Z,54.20
2019-04-11T14:03:53.749Z,54.30
2019-04-11T14:06:23.686Z,54.40
2019-04-11T14:09:11.541Z,54.50
2019-04-11T14:11:42.993Z,54.70
2019-04-11T14:14:14.488Z,54.80
2019-04-11T14:16:51.803Z,54.70
2019-04-11T14:19:23.229Z,62.50
2019-04-11T14:21:53.063Z,66.70
2019-04-11T14:24:24.403Z,68.50
2019-04-11T14:26:56.118Z,71.70
2019-04-11T14:29:36.331Z,73.20
2019-04-11T14:35:08.718Z,76.40
2019-04-11T14:37:43.548Z,77.00
2019-04-11T14:40:18.016Z,77.70
2019-04-11T14:42:49.567Z,77.60
2019-04-11T14:48:11.490Z,78.90
2019-04-11T14:52:34.377Z,78.90
2019-04-11T14:55:05.394Z,78.80
2019-04-11T15:00:27.266Z,79.20
2019-04-11T15:02:58.904Z,80.50
2019-04-11T15:05:48.663Z,79.80
2019-04-11T15:08:22.759Z,79.70
2019-04-11T15:10:57.097Z,79.50
2019-04-11T15:13:28.621Z,80.50
2019-04-11T15:16:11.032Z,78.80
2019-04-11T15:18:42.342Z,79.10
2019-04-11T15:21:15.019Z,79.40
2019-04-11T15:23:44.863Z,79.60
2019-04-11T15:26:32.800Z,79.30
2019-04-11T15:29:04.332Z,80.40
2019-04-11T15:31:39.387Z,80.80
2019-04-11T15:34:19.287Z,80.20
2019-04-11T15:36:57.758Z,80.60
2019-04-11T15:39:44.577Z,80.70
2019-04-11T15:42:17.207Z,80.20
2019-04-11T15:44:54.378Z,80.60
2019-04-11T15:47:28.836Z,80.40
2019-04-11T15:50:05.381Z,80.00
2019-04-11T15:52:37.029Z,80.30
2019-04-11T15:55:25.567Z,80.30
2019-04-11T16:06:16.524Z,80.80
2019-04-11T16:08:46.618Z,80.40
2019-04-11T16:14:05.473Z,81.60
2019-04-11T16:16:46.189Z,81.40
2019-04-11T16:19:20.601Z,81.10
2019-04-11T16:22:08.603Z,81.00
2019-04-11T16:24:39.992Z,81.30
2019-04-11T16:27:14.365Z,82.20
2019-04-11T16:29:47.434Z,83.20
2019-04-11T16:32:19.136Z,82.40
2019-04-11T16:37:24.697Z,83.80
2019-04-11T16:40:10.478Z,84.70
2019-04-11T16:42:43.279Z,84.80
2019-04-11T16:45:31.649Z,84.50
2019-04-11T16:50:45.764Z,83.70
2019-04-11T16:53:15.783Z,84.90
2019-04-11T16:55:45.532Z,85.20
2019-04-11T17:00:52.278Z,85.00
2019-04-11T17:08:21.121Z,85.30
2019-04-11T17:11:10.916Z,85.20
2019-04-11T17:13:41.113Z,86.00
2019-04-11T17:16:12.825Z,84.70
2019-04-11T17:18:42.643Z,85.20
2019-04-11T17:21:12.427Z,85.90
2019-04-11T17:23:46.782Z,86.60
2019-04-11T17:26:15.790Z,85.40
2019-04-11T17:28:46.625Z,85.30
2019-04-11T17:31:16.526Z,84.40
2019-04-11T17:33:46.508Z,84.10
2019-04-11T17:36:16.297Z,70.80
2019-04-11T17:38:46.266Z,73.80
2019-04-11T17:41:16.160Z,73.70
2019-04-11T17:43:51.397Z,71.40
2019-04-11T17:46:19.209Z,71.70
2019-04-11T17:48:50.412Z,70.60
2019-04-11T17:53:50.223Z,70.80
2019-04-11T17:56:19.999Z,71.30
2019-04-11T17:58:49.836Z,70.50
2019-04-11T18:01:19.795Z,69.70
2019-04-11T18:03:49.586Z,70.90
2019-04-11T18:06:19.398Z,69.40
2019-04-11T18:08:51.591Z,72.00
2019-04-11T18:11:25.662Z,68.80
2019-04-11T18:13:53.711Z,68.10
2019-04-11T18:16:23.628Z,66.60
2019-04-11T18:18:54.511Z,68.40
2019-04-11T18:21:25.837Z,65.40
2019-04-11T18:26:25.186Z,68.70
2019-04-11T18:28:55.029Z,71.10
2019-04-11T18:31:25.573Z,67.30
2019-04-11T18:33:55.626Z,62.90
2019-04-11T18:36:25.448Z,68.00
2019-04-11T18:38:56.409Z,64.20
2019-04-11T18:41:26.161Z,68.30
2019-04-11T18:46:25.124Z,62.70
2019-04-11T18:48:54.849Z,67.40
2019-04-11T18:51:24.682Z,63.80
2019-04-11T18:53:54.421Z,70.50
2019-04-11T18:56:24.187Z,72.50
2019-04-11T19:01:02.051Z,72.00
2019-04-11T19:03:36.323Z,73.10
2019-04-11T19:06:03.580Z,71.90
2019-04-11T19:10:14.546Z,67.20
2019-04-11T19:12:46.446Z,64.40
2019-04-11T19:15:16.944Z,65.80
2019-04-11T19:17:47.214Z,64.40
2019-04-11T19:20:19.172Z,65.30
2019-04-11T19:22:49.922Z,64.10
2019-04-11T19:25:20.794Z,62.90
2019-04-11T19:27:54.089Z,62.50
2019-04-11T19:30:23.990Z,63.90
2019-04-11T19:35:23.597Z,61.60
2019-04-11T19:37:53.535Z,61.80
2019-04-11T19:40:23.983Z,61.70
2019-04-11T19:42:54.931Z,60.60
2019-04-11T19:45:24.730Z,61.00
2019-04-11T19:47:56.619Z,59.50
2019-04-11T19:50:26.768Z,58.40
2019-04-11T19:52:58.156Z,59.90
2019-04-11T19:55:29.708Z,53.30
2019-04-11T19:57:59.583Z,53.60
2019-04-11T20:00:29.615Z,60.40
2019-04-11T20:05:26.475Z,62.20
2019-04-11T20:10:25.897Z,63.80
2019-04-11T20:15:36.491Z,64.50
2019-04-11T20:17:56.719Z,63.90
2019-04-11T20:20:26.632Z,64.10
2019-04-11T20:22:59.243Z,64.80
2019-04-11T20:27:58.394Z,64.90
2019-04-11T20:30:28.245Z,64.70
2019-04-11T20:32:58.132Z,63.70
2019-04-11T20:35:29.067Z,64.30
2019-04-11T20:37:59.425Z,63.80
2019-04-11T20:40:29.232Z,63.30
2019-04-11T20:42:59.126Z,63.80
2019-04-11T20:45:30.613Z,64.80
2019-04-11T20:48:00.983Z,65.20
2019-04-11T20:50:30.870Z,64.70
2019-04-11T20:53:11.937Z,63.90
2019-04-11T20:55:32.072Z,65.60
2019-04-11T20:58:01.945Z,65.90
2019-04-11T21:00:31.798Z,63.20
2019-04-11T21:03:02.859Z,62.30
2019-04-11T21:08:03.098Z,64.80
2019-04-11T21:10:34.125Z,64.50
2019-04-11T21:13:06.840Z,64.20
2019-04-11T21:15:36.330Z,64.20
2019-04-11T21:18:06.096Z,64.30
2019-04-11T21:20:35.950Z,64.70
2019-04-11T21:23:05.677Z,64.70
2019-04-11T21:25:35.512Z,64.50
2019-04-11T21:28:05.250Z,64.90
2019-04-11T21:30:38.687Z,62.40
2019-04-11T21:38:07.405Z,64.30
2019-04-11T21:40:37.445Z,63.60
2019-04-11T21:43:08.285Z,64.50
2019-04-11T21:45:38.004Z,64.10
2019-04-11T21:48:07.952Z,63.80
2019-04-11T21:50:40.279Z,63.90
2019-04-11T21:53:13.760Z,63.90
2019-04-11T21:55:40.950Z,63.80
2019-04-11T21:58:10.846Z,64.00
2019-04-11T22:00:43.033Z,63.50
2019-04-11T22:03:14.417Z,63.30
2019-04-11T22:05:44.294Z,63.60
2019-04-11T22:10:44.403Z,63.30
2019-04-11T22:13:14.238Z,63.20
2019-04-11T22:15:44.094Z,60.10
2019-04-11T22:18:16.822Z,62.50
2019-04-11T22:21:36.701Z,62.10
2019-04-11T22:24:06.712Z,61.70
2019-04-11T22:26:36.528Z,61.20
2019-04-11T22:29:06.215Z,62.20
2019-04-11T22:31:35.983Z,62.00
2019-04-11T22:34:07.309Z,61.00
2019-04-11T22:36:37.131Z,61.20
2019-04-11T22:41:37.830Z,61.00
2019-04-11T22:46:38.355Z,60.00
2019-04-11T22:49:09.394Z,61.00
2019-04-11T22:51:42.714Z,61.00
2019-04-11T22:54:12.925Z,60.10
2019-04-11T22:56:42.460Z,60.10
2019-04-11T22:59:14.040Z,60.40
2019-04-11T23:01:46.591Z,60.50
2019-04-11T23:04:17.107Z,59.80
2019-04-11T23:06:47.115Z,60.00
2019-04-11T23:09:19.505Z,59.60
2019-04-11T23:11:49.320Z,59.80
2019-04-11T23:14:19.453Z,59.40
2019-04-11T23:16:49.255Z,59.60
2019-04-11T23:21:48.665Z,59.40
2019-04-11T23:24:18.522Z,59.50
2019-04-11T23:29:18.900Z,59.40
2019-04-11T23:31:50.721Z,59.10
2019-04-11T23:34:22.180Z,58.80
2019-04-11T23:36:51.790Z,59.00
2019-04-11T23:39:22.930Z,58.80
2019-04-11T23:41:53.286Z,58.90
2019-04-11T23:44:23.411Z,59.00
2019-04-11T23:46:53.205Z,58.70
2019-04-11T23:49:25.245Z,58.70
2019-04-11T23:51:55.881Z,58.60
2019-04-11T23:54:28.927Z,58.50
2019-04-11T23:57:00.481Z,58.50
2019-04-11T23:59:32.166Z,58.40
